Airfield :
LOGIN :

Register | Disclaimer

   EN    FR    IT 

 










Legend :    VFR   Marginal VFR   IFR   Intensive IFR   Very Intensive IFR
Visi :
Ceiling :
>= 8 km
>= 3000ft
5 to 8 km
1000 to 3000 ft
1500m to 5 km
500 to 1000 ft
800 to 1500m
200 to 500 ft
< 800m
< 200 ft
Symbols :   Thunderstorms  Fog  Heavy snow  Heavy precipitations  Wind > 20 kt
SIGMETs :     Misc.  Thunderstorms  Icing  Turbulence  Mountain Waves  Volcanic Ashes






- Airport Elevation : 137 ft
- IATA code : THN


ESGT - Trollhattan-Vanersborg

CURRENT METAR :
  • 202020Z AUTO 02004KT 9999 NCD 17/15 Q1012

EXPIRED METARs :
  • 201950Z AUTO VRB02KT 9999 NCD 19/15 Q1012
  • 201920Z AUTO 34003KT 9999 NCD 21/14 Q1012
  • 201850Z AUTO 32005KT 9999 NCD 20/15 Q1012
  • 201820Z AUTO 31006KT 9999 NCD 22/15 Q1012
  • 201750Z AUTO 36003KT 9999 NCD 23/15 Q1012
  • 201720Z AUTO 36004KT 9999 NCD 24/13 Q1012
  • 201650Z AUTO 02004KT 340V040 9999 NCD 24/13 Q1013
  • 201620Z AUTO 01004KT 340V040 9999 NCD 24/13 Q1013
  • 201550Z AUTO 05004KT 9999 NCD 25/11 Q1013

Expired Forecast.



MET'MAP, your aeronautical weather chart ! - Copyright ORBIFLY December 2007 - Disclaimer

ORBIFLY MET'MAP TEAM :

Programming & Development : Alexandra Zaïnal
Original concept : Baudouin d'Aumeries
Technical & hardware support : Manuel Goepfert
Assistance : Marc-Olivier Méhu




SOURCES & CREDITS :

   NOAA